Copley, Ohio
Current Conditions -  °F | °C
As of 3:54 PM on Friday 19 Dec 2014 (Local Time) from KAKR Reporting Station
Overcast Overcast  
Wind Chill: 31°   Ceiling: 2600
Heat Index: 31°   Visibility: 10mi
Dew Point: 22°   Wind: 3mph
Humidity: 69%   Direction: NA
Pressure: 30.23"   Gusts: NA
Location:  41.1017°N, 81.6573°W
Report Text: KAKR 192054Z AUTO VRB03KT 10SM OVC026 M01/M06 A3023 RMK AO2 SLP247 T10061056 53009 $
Loading
Personal Weather Stations






























Interactive Weather Map New forecast layout! Learn more

10-Day Weather Forecast

Advertisements
Track Severe Weather on mobile